Soleil Weather Down

Nearby METAR Reports

 

KCNI - Canton/Cherokee, Georgia, USA
Distance from station: ENE 6mi, 10km
Updated: Mon, 21-Oct-2019 10:30am EDT
Overcast
Overcast
 Wind from ESE
Wind: ESE 3 mph , 6 km/h
Temperature: 61°F , 16°C
Dew Point: 61°F , 16°C
Humidity: 100%
Barometer: 30.05 inHg , 1017.6 hPa
Clouds: Overcast
Visibility: 7 miles , 11 km
Cloud details: Overcast 200 ft
2019/10/21 14:30 KCNI 211430Z AUTO 11003KT 7SM OVC002 16/16 A3005 RMK AO2
KRYY - Marietta Mccolum, Georgia, USA
Distance from station: SSW 18mi, 29km
Updated: Mon, 21-Oct-2019 9:50am EDT
Mostly cloudy
Mostly cloudy
 Wind from E
Wind: E 3 mph , 6 km/h
Temperature: 59°F , 15°C
Dew Point: 57°F , 14°C
Humidity: 94%
Barometer: 30.02 inHg , 1016.6 hPa
Clouds: Mostly cloudy
Visibility: 10 miles , 16 km
Cloud details: Mostly cloudy 1300 ft
2019/10/21 13:50 KRYY 211350Z 09003KT 10SM BKN013 15/14 A3002 RMK AO2 SLP886 T01500144 $
KVPC - Cartersville, Georgia, USA
Distance from station: WSW 22mi, 35km
Updated: Mon, 21-Oct-2019 9:53am EDT
Clear
Clear
 Wind from calm
Wind: Calm
Temperature: 63°F , 17°C
Dew Point: 59°F , 15°C
Humidity: 88%
Barometer: 30.01 inHg , 1016.3 hPa
Clouds: Clear
Visibility: 10 miles , 16 km
2019/10/21 13:53 KVPC 211353Z AUTO 00000KT 10SM CLR 17/15 A3001 RMK AO2 SLP153 T01670150
 
KMGE - Dobbins Afb/Mari, Georgia, USA
Distance from station: S 24mi, 39km
Updated: Mon, 21-Oct-2019 10:34am EDT
Mostly cloudy
Mostly cloudy
 Wind from ESE
Wind: ESE 7 mph , 11 km/h
Temperature: 64°F , 18°C
Dew Point: 64°F , 18°C
Humidity: 100%
Barometer: 30.03 inHg , 1016.9 hPa
Clouds: Mostly cloudy
Visibility: 10 miles , 16 km
Cloud details: Partly cloudy 1400 ft
Mostly cloudy 15000 ft
Mostly cloudy 25000 ft
2019/10/21 14:34 KMGE 211434Z 12006KT 10SM SCT014 BKN150 BKN250 18/18 A3003 RMK AO2A $
KPDK - Peachtree/Dekalb, Georgia, USA
Distance from station: SSE 29mi, 47km
Updated: Mon, 21-Oct-2019 10:32am EDT
Partly cloudy
Partly cloudy
 Wind from SE
Wind: SE 6 mph , 9 km/h
Temperature: 64°F , 18°C
Dew Point: 61°F , 16°C
Humidity: 88%
Barometer: 30.03 inHg , 1016.9 hPa
Clouds: Partly cloudy
Visibility: 10 miles , 16 km
Cloud details: Partly cloudy 1500 ft
2019/10/21 14:32 KPDK 211432Z 14005KT 10SM SCT015 18/16 A3003 RMK AO2 T01780161
KFTY - Atlanta/Fulton, Georgia, USA
Distance from station: S 34mi, 54km
Updated: Mon, 21-Oct-2019 9:53am EDT
Partly cloudy
Partly cloudy
 Wind from NE
Wind: NE 3 mph , 6 km/h
Temperature: 61°F , 16°C
Dew Point: 57°F , 14°C
Humidity: 88%
Barometer: 30.00 inHg , 1015.9 hPa
Clouds: Partly cloudy
Visibility: 10 miles , 16 km
Cloud details: Partly cloudy 1400 ft
2019/10/21 13:53 KFTY 211353Z 04003KT 10SM SCT014 16/14 A3000 RMK AO2 SLP156 T01610144
 
KPUJ - Atlanta/Paulding, Georgia, USA
Distance from station: SW 34mi, 55km
Updated: Mon, 21-Oct-2019 10:35am EDT
Fog, Overcast
Fog, Overcast
 Wind from SE
Wind: SE 8 mph , 13 km/h
Temperature: 59°F , 15°C
Dew Point: 59°F , 15°C
Humidity: 100%
Barometer: 30.01 inHg , 1016.3 hPa
Summary: Fog
Clouds: Overcast
Visibility: 1/2 mile , 0.8 km
Cloud details: Overcast 200 ft
2019/10/21 14:35 KPUJ 211435Z AUTO 13007KT 1/2SM FG OVC002 15/15 A3001 RMK AO2
KDNN - Dalton, Georgia, USA
Distance from station: NW 37mi, 59km
Updated: Mon, 21-Oct-2019 10:35am EDT
Clear
Clear
 Wind from S
Wind: S 5 mph , 7 km/h
Temperature: 61°F , 16°C
Dew Point: 59°F , 15°C
Humidity: 94%
Barometer: 29.97 inHg , 1014.9 hPa
Clouds: Clear
Visibility: 10 miles , 16 km
2019/10/21 14:35 KDNN 211435Z AUTO 17004KT 10SM CLR 16/15 A2997 RMK AO2
KLZU - Lawrenceville, Georgia, USA
Distance from station: ESE 37mi, 59km
Updated: Mon, 21-Oct-2019 9:56am EDT
Mist, Overcast
Mist, Overcast
 Wind from E
Wind: E 5 mph , 7 km/h
Temperature: 59°F , 15°C
Dew Point: 59°F , 15°C
Humidity: 100%
Barometer: 30.03 inHg , 1016.9 hPa
Summary: Mist
Clouds: Overcast
Visibility: 2 miles , 3 km
Cloud details: Overcast 200 ft
2019/10/21 13:56 KLZU 211356Z 09004KT 2SM BR OVC002 15/15 A3003 RMK AO2 SLP177 T01500150
 
KRMG - Rome, Georgia, USA
Distance from station: W 38mi, 61km
Updated: Mon, 21-Oct-2019 10:40am EDT
Mostly cloudy
Mostly cloudy
 Wind from S
Wind: S 6 mph , 9 km/h
Temperature: 64°F , 18°C
Dew Point: 61°F , 16°C
Humidity: 88%
Barometer: 29.97 inHg , 1014.9 hPa
Clouds: Mostly cloudy
Visibility: 10 miles , 16 km
Cloud details: Mostly cloudy 900 ft
2019/10/21 14:40 KRMG 211440Z AUTO 17005KT 10SM BKN009 18/16 A2997 RMK AO2 T01780156
KGVL - Gainesville, Georgia, USA
Distance from station: E 39mi, 62km
Updated: Mon, 21-Oct-2019 10:18am EDT
Mist, Overcast
Mist, Overcast
 Wind from ENE
Wind: ENE 8 mph , 13 km/h
Temperature: 61°F , 16°C
Dew Point: 61°F , 16°C
Humidity: 100%
Barometer: 30.05 inHg , 1017.6 hPa
Summary: Mist
Clouds: Overcast
Visibility: 3 miles , 5 km
Cloud details: Overcast 200 ft
2019/10/21 14:18 KGVL 211418Z AUTO 07007KT 3SM BR OVC002 16/16 A3005 RMK AO2 T01610161
KATL - Atlanta, Georgia, USA
Distance from station: S 44mi, 71km
Updated: Mon, 21-Oct-2019 9:52am EDT
Mostly cloudy
Mostly cloudy
 Wind from SE
Wind: SE 7 mph , 11 km/h
Temperature: 64°F , 18°C
Dew Point: 61°F , 16°C
Humidity: 88%
Barometer: 30.01 inHg , 1016.3 hPa
Clouds: Mostly cloudy
Visibility: 8 miles , 13 km
Cloud details: Few Clouds 1000 ft
Mostly cloudy 15000 ft
Mostly cloudy 25000 ft
2019/10/21 13:52 KATL 211352Z 13006KT 8SM FEW010 BKN150 BKN250 18/16 A3001 RMK AO2 SLP157 FG BANK N-NE T01830156